createdAt,value
2023-05-21T00:04:51.625Z,7.65
2023-05-21T00:09:53.907Z,5.72
2023-05-21T00:14:56.101Z,5.70
2023-05-21T00:19:58.350Z,7.63
2023-05-21T00:25:00.646Z,5.95
2023-05-21T00:30:04.236Z,6.72
2023-05-21T00:35:08.021Z,6.53
2023-05-21T00:40:11.701Z,8.43
2023-05-21T00:45:17.158Z,7.15
2023-05-21T00:50:19.594Z,6.78
2023-05-21T00:55:21.954Z,5.82
2023-05-21T01:00:26.490Z,6.28
2023-05-21T01:05:29.202Z,7.28
2023-05-21T01:10:31.551Z,7.05
2023-05-21T01:15:34.014Z,6.45
2023-05-21T01:20:37.746Z,6.95
2023-05-21T01:25:42.341Z,9.10
2023-05-21T01:30:46.799Z,8.23
2023-05-21T01:36:38.193Z,7.03
2023-05-21T01:41:45.033Z,6.00
2023-05-21T01:46:47.330Z,6.10
2023-05-21T01:51:50.282Z,5.82
2023-05-21T01:56:52.492Z,6.55
2023-05-21T02:01:55.794Z,6.70
2023-05-21T02:06:58.163Z,7.00
2023-05-21T02:12:00.380Z,6.90
2023-05-21T02:17:02.538Z,6.93
2023-05-21T02:22:04.865Z,5.93
2023-05-21T02:27:07.258Z,8.70
2023-05-21T02:32:09.487Z,7.93
2023-05-21T02:37:11.628Z,6.22
2023-05-21T02:42:13.856Z,6.15
2023-05-21T02:47:16.316Z,6.45
2023-05-21T02:52:20.195Z,8.43
2023-05-21T02:57:22.591Z,5.93
2023-05-21T03:02:24.945Z,5.07
2023-05-21T03:07:27.340Z,5.32
2023-05-21T03:12:29.533Z,5.50
2023-05-21T03:17:32.273Z,5.72
2023-05-21T03:22:34.481Z,9.00
2023-05-21T03:27:36.951Z,5.85
2023-05-21T03:32:41.835Z,6.55
2023-05-21T03:37:44.424Z,5.28
2023-05-21T03:42:46.732Z,6.20
2023-05-21T03:47:49.640Z,6.05
2023-05-21T03:52:52.124Z,6.18
2023-05-21T03:57:54.420Z,7.13
2023-05-21T04:02:56.865Z,7.40
2023-05-21T04:08:00.287Z,7.47
2023-05-21T04:13:02.568Z,10.70
2023-05-21T04:18:05.389Z,7.18
2023-05-21T04:23:07.846Z,6.15
2023-05-21T04:28:09.954Z,6.53
2023-05-21T04:33:12.746Z,7.45
2023-05-21T04:38:19.606Z,10.00
2023-05-21T04:43:28.275Z,7.13
2023-05-21T04:48:32.967Z,7.03
2023-05-21T04:53:36.061Z,6.38
2023-05-21T04:58:40.652Z,7.50
2023-05-21T05:03:43.033Z,7.07
2023-05-21T05:08:46.353Z,7.30
2023-05-21T05:13:50.965Z,8.65
2023-05-21T05:18:53.282Z,6.60
2023-05-21T05:23:57.000Z,7.25
2023-05-21T05:29:03.418Z,7.20
2023-05-21T05:34:05.745Z,6.43
2023-05-21T05:39:08.926Z,6.40
2023-05-21T05:44:11.283Z,6.78
2023-05-21T05:49:16.908Z,5.88
2023-05-21T05:54:19.561Z,5.32
2023-05-21T05:59:21.722Z,4.88
2023-05-21T06:04:26.162Z,3.85
2023-05-21T06:09:28.497Z,4.55
2023-05-21T06:14:30.699Z,3.90
2023-05-21T06:19:33.345Z,6.35
2023-05-21T06:24:35.868Z,6.10
2023-05-21T06:29:38.148Z,5.97
2023-05-21T06:34:41.082Z,8.93
2023-05-21T06:39:43.443Z,3.95
2023-05-21T06:44:45.908Z,5.93
2023-05-21T06:50:11.263Z,7.10
2023-05-21T06:55:13.521Z,5.65
2023-05-21T07:00:34.407Z,6.80
2023-05-21T07:05:36.888Z,6.18
2023-05-21T07:10:40.793Z,5.32
2023-05-21T07:15:43.216Z,4.75
2023-05-21T07:20:46.433Z,3.58
2023-05-21T07:25:51.323Z,6.50
2023-05-21T07:30:54.837Z,4.25
2023-05-21T07:36:03.828Z,3.28
2023-05-21T07:41:06.052Z,5.93
2023-05-21T07:46:08.444Z,7.43
2023-05-21T07:51:11.691Z,4.45
2023-05-21T07:56:14.297Z,3.90
2023-05-21T08:01:18.488Z,6.20
2023-05-21T08:06:22.271Z,5.72
2023-05-21T08:11:25.176Z,7.90
2023-05-21T08:16:27.439Z,8.02
2023-05-21T08:21:29.697Z,4.93
2023-05-21T08:26:32.604Z,4.47
2023-05-21T08:31:34.898Z,5.72
2023-05-21T08:36:38.328Z,7.47
2023-05-21T08:41:54.053Z,5.95
2023-05-21T08:46:59.275Z,4.53
2023-05-21T08:52:02.875Z,7.22
2023-05-21T08:57:05.605Z,5.78
2023-05-21T09:02:08.750Z,6.32
2023-05-21T09:07:12.523Z,6.20
2023-05-21T09:12:35.470Z,5.72
2023-05-21T09:17:37.856Z,8.23
2023-05-21T09:23:16.763Z,5.13
2023-05-21T09:28:20.285Z,8.77
2023-05-21T09:33:26.559Z,7.07
2023-05-21T09:38:29.577Z,5.47
2023-05-21T09:43:32.907Z,6.38
2023-05-21T09:48:38.474Z,8.63
2023-05-21T09:53:53.756Z,9.30
2023-05-21T09:58:57.952Z,4.30
2023-05-21T10:04:02.361Z,7.43
2023-05-21T10:09:10.606Z,7.45
2023-05-21T10:14:19.973Z,4.65
2023-05-21T10:19:25.025Z,6.03
2023-05-21T10:24:28.027Z,10.67
2023-05-21T10:29:32.179Z,5.57
2023-05-21T10:34:36.460Z,5.43
2023-05-21T10:39:39.997Z,6.18
2023-05-21T10:45:08.805Z,7.85
2023-05-21T10:50:55.493Z,4.10
2023-05-21T11:01:19.518Z,8.13
2023-05-21T11:06:25.288Z,5.45
2023-05-21T11:11:44.953Z,10.75
2023-05-21T11:16:47.291Z,13.90
2023-05-21T11:21:55.310Z,5.28
2023-05-21T11:26:58.652Z,10.80
2023-05-21T11:32:02.943Z,9.45
2023-05-21T11:37:33.327Z,10.15
2023-05-21T11:42:39.695Z,11.07
2023-05-21T11:47:44.082Z,11.75
2023-05-21T11:52:46.391Z,9.90
2023-05-21T11:57:52.359Z,6.78
2023-05-21T12:02:56.958Z,10.52
2023-05-21T12:07:59.796Z,11.23
2023-05-21T12:13:02.080Z,11.70
2023-05-21T12:18:04.342Z,8.48
2023-05-21T12:23:06.618Z,8.52
2023-05-21T12:28:08.871Z,10.77
2023-05-21T12:33:12.225Z,9.73
2023-05-21T12:38:14.496Z,11.25
2023-05-21T12:43:16.747Z,7.88
2023-05-21T12:48:18.970Z,11.43
2023-05-21T12:53:21.228Z,8.90
2023-05-21T12:58:23.461Z,12.80
2023-05-21T13:03:26.803Z,9.07
2023-05-21T13:08:29.581Z,12.43
2023-05-21T13:13:31.757Z,12.63
2023-05-21T13:18:33.945Z,10.93
2023-05-21T13:23:36.091Z,16.42
2023-05-21T13:28:38.243Z,11.73
2023-05-21T13:33:40.449Z,7.60
2023-05-21T13:38:43.068Z,10.50
2023-05-21T13:43:45.344Z,8.77
2023-05-21T13:48:47.518Z,8.52
2023-05-21T13:53:49.687Z,8.52
2023-05-21T13:58:51.925Z,10.80
2023-05-21T14:03:54.099Z,9.73
2023-05-21T14:08:56.250Z,13.68
2023-05-21T14:13:59.110Z,10.75
2023-05-21T14:19:01.360Z,16.40
2023-05-21T14:24:03.731Z,10.35
2023-05-21T14:29:06.335Z,10.88
2023-05-21T14:34:08.898Z,7.80
2023-05-21T14:39:11.195Z,10.13
2023-05-21T14:44:13.454Z,11.30
2023-05-21T14:49:15.795Z,10.50
2023-05-21T14:54:17.931Z,10.40
2023-05-21T14:59:20.094Z,12.43
2023-05-21T15:04:22.281Z,11.02
2023-05-21T15:09:24.727Z,12.30
2023-05-21T15:14:26.851Z,15.85
2023-05-21T15:19:29.061Z,12.32
2023-05-21T15:24:31.437Z,11.93
2023-05-21T15:29:33.653Z,12.85
2023-05-21T15:34:36.028Z,9.93
2023-05-21T15:39:38.334Z,8.98
2023-05-21T15:44:40.685Z,9.65
2023-05-21T15:49:43.067Z,10.77
2023-05-21T15:54:45.337Z,18.85
2023-05-21T15:59:47.866Z,14.38
2023-05-21T16:04:51.790Z,9.77
2023-05-21T16:09:54.018Z,11.70
2023-05-21T16:14:56.316Z,13.48
2023-05-21T16:19:58.477Z,9.57
2023-05-21T16:25:00.700Z,7.97
2023-05-21T16:30:03.266Z,12.57
2023-05-21T16:35:07.429Z,11.18
2023-05-21T16:40:10.262Z,11.48
2023-05-21T16:45:19.569Z,9.85
2023-05-21T16:50:21.772Z,12.50
2023-05-21T16:55:23.981Z,11.85
2023-05-21T17:00:26.202Z,10.82
2023-05-21T17:05:28.445Z,16.75
2023-05-21T17:10:32.881Z,7.07
2023-05-21T17:15:35.162Z,9.82
2023-05-21T17:20:38.690Z,8.68
2023-05-21T17:25:41.375Z,13.13
2023-05-21T17:30:43.766Z,7.30
2023-05-21T17:35:45.996Z,10.30
2023-05-21T17:40:50.063Z,15.95
2023-05-21T17:45:52.246Z,9.82
2023-05-21T17:50:54.403Z,14.52
2023-05-21T17:55:56.611Z,10.00
2023-05-21T18:00:59.023Z,5.78
2023-05-21T18:06:01.249Z,10.20
2023-05-21T18:11:03.461Z,9.70
2023-05-21T18:16:06.053Z,8.02
2023-05-21T18:21:08.534Z,13.23
2023-05-21T18:26:10.735Z,5.82
2023-05-21T18:31:13.030Z,7.47
2023-05-21T18:36:15.419Z,10.70
2023-05-21T18:41:17.792Z,6.20
2023-05-21T18:46:20.075Z,7.88
2023-05-21T18:51:22.420Z,7.38
2023-05-21T18:56:24.591Z,5.53
2023-05-21T19:01:27.012Z,6.28
2023-05-21T19:06:29.481Z,6.88
2023-05-21T19:11:34.440Z,6.10
2023-05-21T19:16:36.791Z,6.07
2023-05-21T19:21:39.374Z,7.03
2023-05-21T19:26:41.548Z,4.53
2023-05-21T19:31:43.859Z,9.05
2023-05-21T19:36:53.401Z,4.90
2023-05-21T19:41:56.289Z,6.28
2023-05-21T19:46:59.521Z,5.18
2023-05-21T19:52:02.571Z,4.72
2023-05-21T19:57:04.965Z,8.65
2023-05-21T20:02:07.314Z,6.40
2023-05-21T20:07:09.513Z,7.05
2023-05-21T20:12:11.892Z,5.13
2023-05-21T20:17:14.774Z,5.13
2023-05-21T20:22:17.147Z,6.13
2023-05-21T20:27:20.035Z,5.35
2023-05-21T20:32:22.292Z,3.55
2023-05-21T20:37:26.263Z,6.20
2023-05-21T20:42:34.259Z,3.72
2023-05-21T20:47:36.625Z,5.85
2023-05-21T20:52:38.905Z,6.32
2023-05-21T20:57:41.710Z,3.22
2023-05-21T21:07:46.111Z,2.95
2023-05-21T21:12:48.478Z,3.10
2023-05-21T21:17:50.722Z,2.85
2023-05-21T21:22:52.889Z,4.32
2023-05-21T21:27:55.062Z,3.38
2023-05-21T21:32:57.471Z,5.85
2023-05-21T21:37:59.701Z,5.22
2023-05-21T21:43:01.901Z,2.17
2023-05-21T21:48:04.324Z,3.38
2023-05-21T21:53:06.537Z,5.13
2023-05-21T21:58:08.722Z,7.93
2023-05-21T22:03:14.446Z,4.40
2023-05-21T22:08:17.370Z,4.85
2023-05-21T22:13:19.522Z,5.95
2023-05-21T22:18:36.371Z,3.55
2023-05-21T22:23:42.239Z,3.53
2023-05-21T22:28:44.427Z,4.93
2023-05-21T22:33:46.850Z,3.88
2023-05-21T22:38:49.068Z,5.55
2023-05-21T22:43:52.335Z,4.22
2023-05-21T22:48:54.511Z,5.25
2023-05-21T22:53:56.950Z,4.95
2023-05-21T22:58:59.618Z,5.28
2023-05-21T23:04:01.747Z,3.50
2023-05-21T23:09:04.050Z,4.75
2023-05-21T23:14:06.306Z,4.03
2023-05-21T23:19:08.518Z,4.80
2023-05-21T23:24:11.087Z,4.90
2023-05-21T23:29:13.427Z,4.82
2023-05-21T23:34:15.668Z,5.07
2023-05-21T23:39:18.414Z,2.90
2023-05-21T23:44:21.054Z,3.20
2023-05-21T23:49:23.226Z,3.35
2023-05-21T23:54:25.446Z,3.75
2023-05-21T23:59:27.719Z,3.35
